Pagina principale
METAR-TAF:

METAR-TAF

Aeroporti :

Rosh Pinna, Israele

latitudine: 32-58-48N, longitudine: 035-34-12E, altezza: 281 m

Osservazione

Il bollettino è stato emesso 1 ora e 8 minuti fa, alle 05:50 UTC
Vento 13 kt da est/nord-est con raffiche fino a 24 kt
Temperature 17°C
Umidità 12%
Pressione 1022 hPa
Visibilità 10 km o più
nessuna nube inferiore a 1500 m e nessun cumulonembo

METAR: LLIB 180550Z 07013G24KT CAVOK 17/M13 Q1022

Ora: 08:58 (06:58 UTC)

Previsione

Il bollettino è stato emesso 1 ora e 52 minuti fa, alle 05:06 UTC
Previsione valida dal 18 alle 06 UTC al 19 alle 06 UTC
Vento 8 kt da est/nord-est
Visibilità 10 km o più
nessuna nube inferiore a 1500 m e nessun cumulonembo
Temporaneamente
dal 18 alle 06 UTC al 18 alle 17 UTC
Vento 10 kt da est con raffiche fino a 20 kt

TAF: LLIB 180506Z 1806/1906 07008KT CAVOK TEMPO 1806/1817 09010G20KT TX21/1812Z TN14/1904Z

Osservazioni e previsioni meteorologiche di più di 4000 aeroporti (messaggi METAR e TAF).

Le stazioni disponibili sono rappresentate dai dischi gialli e rossi sulla carta.

Puntare il mouse per vedere il nome della stazione.

Clicca sopra per visualizzare le osservazioni e previsioni meteorologiche.

Per cambiare la mappa : fare clic sui pulsanti verdi con una croce nera per ingrandire, il pulsante verde con un trattino per diminuire, o sulla freccia verde per le mappe adiacenti.


METAR-TAF: